sensor_id;sensor_type;location;lat;lon;timestamp;temperature;humidity
7427;DHT22;3755;59.316;18.092;2022-09-12T00:01:24;10.90;99.90
7427;DHT22;3755;59.316;18.092;2022-09-12T00:03:52;10.90;99.90
7427;DHT22;3755;59.316;18.092;2022-09-12T00:06:22;10.90;99.90
7427;DHT22;3755;59.316;18.092;2022-09-12T00:08:49;10.90;99.90
7427;DHT22;3755;59.316;18.092;2022-09-12T00:11:18;10.90;99.90
7427;DHT22;3755;59.316;18.092;2022-09-12T00:13:45;10.90;99.90
7427;DHT22;3755;59.316;18.092;2022-09-12T00:16:16;10.90;99.90
7427;DHT22;3755;59.316;18.092;2022-09-12T00:18:46;10.90;99.90
7427;DHT22;3755;59.316;18.092;2022-09-12T00:21:14;10.90;99.90
7427;DHT22;3755;59.316;18.092;2022-09-12T00:23:41;10.80;99.90
7427;DHT22;3755;59.316;18.092;2022-09-12T00:26:09;10.70;99.90
7427;DHT22;3755;59.316;18.092;2022-09-12T00:28:37;10.70;99.90
7427;DHT22;3755;59.316;18.092;2022-09-12T00:31:06;10.60;99.90
7427;DHT22;3755;59.316;18.092;2022-09-12T00:33:33;10.50;99.90
7427;DHT22;3755;59.316;18.092;2022-09-12T00:36:05;10.50;99.90
7427;DHT22;3755;59.316;18.092;2022-09-12T00:38:32;10.50;99.90
7427;DHT22;3755;59.316;18.092;2022-09-12T00:41:03;10.50;99.90
7427;DHT22;3755;59.316;18.092;2022-09-12T00:43:36;10.50;99.90
7427;DHT22;3755;59.316;18.092;2022-09-12T00:46:09;10.40;99.90
7427;DHT22;3755;59.316;18.092;2022-09-12T00:48:41;10.40;99.90
7427;DHT22;3755;59.316;18.092;2022-09-12T00:51:12;10.40;99.90
7427;DHT22;3755;59.316;18.092;2022-09-12T00:53:40;10.40;99.90
7427;DHT22;3755;59.316;18.092;2022-09-12T00:56:11;10.40;99.90
7427;DHT22;3755;59.316;18.092;2022-09-12T00:58:43;10.40;99.90
7427;DHT22;3755;59.316;18.092;2022-09-12T01:01:14;10.50;99.90
7427;DHT22;3755;59.316;18.092;2022-09-12T01:03:41;10.50;99.90
7427;DHT22;3755;59.316;18.092;2022-09-12T01:06:19;10.60;99.90
7427;DHT22;3755;59.316;18.092;2022-09-12T01:08:48;10.60;99.90
7427;DHT22;3755;59.316;18.092;2022-09-12T01:11:17;10.60;99.90
7427;DHT22;3755;59.316;18.092;2022-09-12T01:13:46;10.50;99.90
7427;DHT22;3755;59.316;18.092;2022-09-12T01:16:14;10.50;99.90
7427;DHT22;3755;59.316;18.092;2022-09-12T01:18:54;10.40;99.90
7427;DHT22;3755;59.316;18.092;2022-09-12T01:21:35;10.30;99.90
7427;DHT22;3755;59.316;18.092;2022-09-12T01:24:35;10.30;99.90
7427;DHT22;3755;59.316;18.092;2022-09-12T01:27:32;10.20;99.90
7427;DHT22;3755;59.316;18.092;2022-09-12T01:33:19;10.20;99.90
7427;DHT22;3755;59.316;18.092;2022-09-12T01:35:53;10.20;99.90
7427;DHT22;3755;59.316;18.092;2022-09-12T01:38:26;10.10;99.90
7427;DHT22;3755;59.316;18.092;2022-09-12T01:41:01;10.10;99.90
7427;DHT22;3755;59.316;18.092;2022-09-12T01:43:36;10.10;99.90
7427;DHT22;3755;59.316;18.092;2022-09-12T01:46:12;10.00;99.90
7427;DHT22;3755;59.316;18.092;2022-09-12T01:48:46;10.00;99.90
7427;DHT22;3755;59.316;18.092;2022-09-12T01:51:22;10.00;99.90
7427;DHT22;3755;59.316;18.092;2022-09-12T01:53:53;9.90;99.90
7427;DHT22;3755;59.316;18.092;2022-09-12T01:56:25;9.90;99.90
7427;DHT22;3755;59.316;18.092;2022-09-12T01:58:58;9.90;99.90
7427;DHT22;3755;59.316;18.092;2022-09-12T02:01:29;9.90;99.90
7427;DHT22;3755;59.316;18.092;2022-09-12T02:04:05;9.90;99.90
7427;DHT22;3755;59.316;18.092;2022-09-12T02:06:39;9.90;99.90
7427;DHT22;3755;59.316;18.092;2022-09-12T02:09:10;9.90;99.90
7427;DHT22;3755;59.316;18.092;2022-09-12T02:11:41;9.90;99.90
7427;DHT22;3755;59.316;18.092;2022-09-12T02:14:11;9.80;99.90
7427;DHT22;3755;59.316;18.092;2022-09-12T02:16:43;9.90;99.90
7427;DHT22;3755;59.316;18.092;2022-09-12T02:19:15;9.90;99.90
7427;DHT22;3755;59.316;18.092;2022-09-12T02:21:45;10.00;99.90
7427;DHT22;3755;59.316;18.092;2022-09-12T02:24:15;10.00;99.90
7427;DHT22;3755;59.316;18.092;2022-09-12T02:26:47;10.00;99.90
7427;DHT22;3755;59.316;18.092;2022-09-12T02:29:15;9.90;99.90
7427;DHT22;3755;59.316;18.092;2022-09-12T02:31:46;9.90;99.90
7427;DHT22;3755;59.316;18.092;2022-09-12T02:34:26;9.90;99.90
7427;DHT22;3755;59.316;18.092;2022-09-12T02:37:04;9.90;99.90
7427;DHT22;3755;59.316;18.092;2022-09-12T02:39:33;9.90;99.90
7427;DHT22;3755;59.316;18.092;2022-09-12T02:42:02;9.90;99.90
7427;DHT22;3755;59.316;18.092;2022-09-12T02:44:30;9.90;99.90
7427;DHT22;3755;59.316;18.092;2022-09-12T02:47:03;9.90;99.90
7427;DHT22;3755;59.316;18.092;2022-09-12T02:49:33;9.90;99.90
7427;DHT22;3755;59.316;18.092;2022-09-12T02:52:00;9.80;99.90
7427;DHT22;3755;59.316;18.092;2022-09-12T02:54:29;9.80;99.90
7427;DHT22;3755;59.316;18.092;2022-09-12T02:56:57;9.70;99.90
7427;DHT22;3755;59.316;18.092;2022-09-12T02:59:24;9.70;99.90
7427;DHT22;3755;59.316;18.092;2022-09-12T03:02:06;9.70;99.90
7427;DHT22;3755;59.316;18.092;2022-09-12T03:04:52;9.70;99.90
7427;DHT22;3755;59.316;18.092;2022-09-12T03:07:31;9.60;99.90
7427;DHT22;3755;59.316;18.092;2022-09-12T03:10:06;9.60;99.90
7427;DHT22;3755;59.316;18.092;2022-09-12T03:12:46;9.60;99.90
7427;DHT22;3755;59.316;18.092;2022-09-12T03:15:27;9.60;99.90
7427;DHT22;3755;59.316;18.092;2022-09-12T03:18:08;9.60;99.90
7427;DHT22;3755;59.316;18.092;2022-09-12T03:20:46;9.60;99.90
7427;DHT22;3755;59.316;18.092;2022-09-12T03:23:23;9.60;99.90
7427;DHT22;3755;59.316;18.092;2022-09-12T03:25:56;9.50;99.90
7427;DHT22;3755;59.316;18.092;2022-09-12T03:28:24;9.50;99.90
7427;DHT22;3755;59.316;18.092;2022-09-12T03:30:52;9.50;99.90
7427;DHT22;3755;59.316;18.092;2022-09-12T03:33:22;9.50;99.90
7427;DHT22;3755;59.316;18.092;2022-09-12T03:35:52;9.60;99.90
7427;DHT22;3755;59.316;18.092;2022-09-12T03:38:19;9.60;99.90
7427;DHT22;3755;59.316;18.092;2022-09-12T03:40:46;9.60;99.90
7427;DHT22;3755;59.316;18.092;2022-09-12T03:43:13;9.60;99.90
7427;DHT22;3755;59.316;18.092;2022-09-12T03:45:40;9.60;99.90
7427;DHT22;3755;59.316;18.092;2022-09-12T03:48:07;9.70;99.90
7427;DHT22;3755;59.316;18.092;2022-09-12T03:50:35;9.70;99.90
7427;DHT22;3755;59.316;18.092;2022-09-12T03:53:03;9.70;99.90
7427;DHT22;3755;59.316;18.092;2022-09-12T03:55:30;9.60;99.90
7427;DHT22;3755;59.316;18.092;2022-09-12T03:57:58;9.60;99.90
7427;DHT22;3755;59.316;18.092;2022-09-12T04:00:25;9.60;99.90
7427;DHT22;3755;59.316;18.092;2022-09-12T04:02:55;9.60;99.90
7427;DHT22;3755;59.316;18.092;2022-09-12T04:05:23;9.60;99.90
7427;DHT22;3755;59.316;18.092;2022-09-12T04:07:50;9.70;99.90
7427;DHT22;3755;59.316;18.092;2022-09-12T04:10:20;9.70;99.90
7427;DHT22;3755;59.316;18.092;2022-09-12T04:12:47;9.70;99.90
7427;DHT22;3755;59.316;18.092;2022-09-12T04:15:14;9.60;99.90
7427;DHT22;3755;59.316;18.092;2022-09-12T04:17:42;9.60;99.90
7427;DHT22;3755;59.316;18.092;2022-09-12T04:20:09;9.80;99.90
7427;DHT22;3755;59.316;18.092;2022-09-12T04:22:37;9.90;99.90
7427;DHT22;3755;59.316;18.092;2022-09-12T04:25:04;10.00;99.90
7427;DHT22;3755;59.316;18.092;2022-09-12T04:27:33;10.10;99.90
7427;DHT22;3755;59.316;18.092;2022-09-12T04:30:01;10.10;99.90
7427;DHT22;3755;59.316;18.092;2022-09-12T04:32:29;10.20;99.90
7427;DHT22;3755;59.316;18.092;2022-09-12T04:34:56;10.20;99.90
7427;DHT22;3755;59.316;18.092;2022-09-12T04:37:24;10.30;99.90
7427;DHT22;3755;59.316;18.092;2022-09-12T04:39:51;10.20;99.90
7427;DHT22;3755;59.316;18.092;2022-09-12T04:42:22;10.30;99.90
7427;DHT22;3755;59.316;18.092;2022-09-12T04:44:51;10.20;99.90
7427;DHT22;3755;59.316;18.092;2022-09-12T04:47:18;10.20;99.90
7427;DHT22;3755;59.316;18.092;2022-09-12T04:49:47;10.30;99.90
7427;DHT22;3755;59.316;18.092;2022-09-12T04:52:17;10.30;99.90
7427;DHT22;3755;59.316;18.092;2022-09-12T04:54:44;10.40;99.90
7427;DHT22;3755;59.316;18.092;2022-09-12T04:57:12;10.40;99.90
7427;DHT22;3755;59.316;18.092;2022-09-12T04:59:41;10.50;99.90
7427;DHT22;3755;59.316;18.092;2022-09-12T05:02:12;10.60;99.90
7427;DHT22;3755;59.316;18.092;2022-09-12T05:04:41;10.60;99.90
7427;DHT22;3755;59.316;18.092;2022-09-12T05:07:10;10.60;99.90
7427;DHT22;3755;59.316;18.092;2022-09-12T05:09:38;10.70;99.90
7427;DHT22;3755;59.316;18.092;2022-09-12T05:12:07;10.70;99.90
7427;DHT22;3755;59.316;18.092;2022-09-12T05:14:36;10.80;99.90
7427;DHT22;3755;59.316;18.092;2022-09-12T05:17:04;10.90;99.90
7427;DHT22;3755;59.316;18.092;2022-09-12T05:19:33;10.90;99.90
7427;DHT22;3755;59.316;18.092;2022-09-12T05:22:00;11.00;99.90
7427;DHT22;3755;59.316;18.092;2022-09-12T05:24:29;11.00;99.90
7427;DHT22;3755;59.316;18.092;2022-09-12T05:26:59;11.10;99.90
7427;DHT22;3755;59.316;18.092;2022-09-12T05:29:29;11.20;99.90
7427;DHT22;3755;59.316;18.092;2022-09-12T05:31:57;11.40;99.90
7427;DHT22;3755;59.316;18.092;2022-09-12T05:34:24;11.50;99.90
7427;DHT22;3755;59.316;18.092;2022-09-12T05:36:54;11.60;99.90
7427;DHT22;3755;59.316;18.092;2022-09-12T05:39:21;11.80;99.90
7427;DHT22;3755;59.316;18.092;2022-09-12T05:41:49;11.80;99.90
7427;DHT22;3755;59.316;18.092;2022-09-12T05:44:17;11.80;99.90
7427;DHT22;3755;59.316;18.092;2022-09-12T05:46:48;11.90;99.90
7427;DHT22;3755;59.316;18.092;2022-09-12T05:49:22;12.10;99.90
7427;DHT22;3755;59.316;18.092;2022-09-12T05:57:59;12.20;99.90
7427;DHT22;3755;59.316;18.092;2022-09-12T06:00:42;12.30;99.90
7427;DHT22;3755;59.316;18.092;2022-09-12T06:03:46;12.30;99.90
7427;DHT22;3755;59.316;18.092;2022-09-12T06:06:19;12.40;99.90
7427;DHT22;3755;59.316;18.092;2022-09-12T06:09:03;12.50;99.90
7427;DHT22;3755;59.316;18.092;2022-09-12T06:11:33;12.60;99.90
7427;DHT22;3755;59.316;18.092;2022-09-12T06:14:04;12.70;99.90
7427;DHT22;3755;59.316;18.092;2022-09-12T06:16:34;12.70;99.90
7427;DHT22;3755;59.316;18.092;2022-09-12T06:19:21;12.80;99.90
7427;DHT22;3755;59.316;18.092;2022-09-12T06:22:02;12.80;99.90
7427;DHT22;3755;59.316;18.092;2022-09-12T06:24:37;12.90;99.90
7427;DHT22;3755;59.316;18.092;2022-09-12T06:27:18;13.00;99.90
7427;DHT22;3755;59.316;18.092;2022-09-12T06:29:59;13.00;99.90
7427;DHT22;3755;59.316;18.092;2022-09-12T06:32:32;13.10;99.90
7427;DHT22;3755;59.316;18.092;2022-09-12T06:35:18;13.20;99.90
7427;DHT22;3755;59.316;18.092;2022-09-12T06:38:06;13.20;99.90
7427;DHT22;3755;59.316;18.092;2022-09-12T06:40:49;13.30;99.90
7427;DHT22;3755;59.316;18.092;2022-09-12T06:43:20;13.40;99.90
7427;DHT22;3755;59.316;18.092;2022-09-12T06:45:51;13.50;99.90
7427;DHT22;3755;59.316;18.092;2022-09-12T06:48:34;13.70;99.90
7427;DHT22;3755;59.316;18.092;2022-09-12T06:51:19;13.90;99.90
7427;DHT22;3755;59.316;18.092;2022-09-12T06:54:16;14.10;99.90
7427;DHT22;3755;59.316;18.092;2022-09-12T06:56:52;14.30;99.90
7427;DHT22;3755;59.316;18.092;2022-09-12T07:00:12;14.40;99.90
7427;DHT22;3755;59.316;18.092;2022-09-12T07:03:15;14.50;99.90
7427;DHT22;3755;59.316;18.092;2022-09-12T07:06:02;14.70;99.90
7427;DHT22;3755;59.316;18.092;2022-09-12T07:08:32;14.80;99.90
7427;DHT22;3755;59.316;18.092;2022-09-12T07:11:20;14.80;99.90
7427;DHT22;3755;59.316;18.092;2022-09-12T07:14:05;15.00;99.90
7427;DHT22;3755;59.316;18.092;2022-09-12T07:16:53;15.20;99.90
7427;DHT22;3755;59.316;18.092;2022-09-12T07:19:39;15.30;99.90
7427;DHT22;3755;59.316;18.092;2022-09-12T07:22:14;15.50;99.90
7427;DHT22;3755;59.316;18.092;2022-09-12T07:24:42;15.70;99.90
7427;DHT22;3755;59.316;18.092;2022-09-12T07:27:21;15.90;99.90
7427;DHT22;3755;59.316;18.092;2022-09-12T07:30:07;16.10;99.90
7427;DHT22;3755;59.316;18.092;2022-09-12T07:32:44;16.40;99.90
7427;DHT22;3755;59.316;18.092;2022-09-12T07:35:16;16.50;99.90
7427;DHT22;3755;59.316;18.092;2022-09-12T07:37:52;16.70;99.90
7427;DHT22;3755;59.316;18.092;2022-09-12T07:40:32;16.70;99.90
7427;DHT22;3755;59.316;18.092;2022-09-12T07:43:00;16.90;99.90
7427;DHT22;3755;59.316;18.092;2022-09-12T07:45:30;17.00;99.90
7427;DHT22;3755;59.316;18.092;2022-09-12T07:48:02;17.10;99.90
7427;DHT22;3755;59.316;18.092;2022-09-12T07:50:35;17.10;99.90
7427;DHT22;3755;59.316;18.092;2022-09-12T07:53:18;17.10;99.90
7427;DHT22;3755;59.316;18.092;2022-09-12T07:55:52;17.10;99.90
7427;DHT22;3755;59.316;18.092;2022-09-12T07:58:53;17.10;99.90
7427;DHT22;3755;59.316;18.092;2022-09-12T08:01:45;16.90;99.90
7427;DHT22;3755;59.316;18.092;2022-09-12T08:04:29;16.70;99.90
7427;DHT22;3755;59.316;18.092;2022-09-12T08:07:14;16.70;99.90
7427;DHT22;3755;59.316;18.092;2022-09-12T08:09:46;16.80;99.90
7427;DHT22;3755;59.316;18.092;2022-09-12T08:12:19;16.90;99.90
7427;DHT22;3755;59.316;18.092;2022-09-12T08:14:47;16.90;99.90
7427;DHT22;3755;59.316;18.092;2022-09-12T08:17:14;16.90;99.90
7427;DHT22;3755;59.316;18.092;2022-09-12T08:19:56;17.00;99.90
7427;DHT22;3755;59.316;18.092;2022-09-12T08:22:25;17.00;99.90
7427;DHT22;3755;59.316;18.092;2022-09-12T08:24:53;17.10;99.90
7427;DHT22;3755;59.316;18.092;2022-09-12T08:27:22;17.10;99.90
7427;DHT22;3755;59.316;18.092;2022-09-12T08:30:05;17.00;99.90
7427;DHT22;3755;59.316;18.092;2022-09-12T08:32:50;16.90;99.90
7427;DHT22;3755;59.316;18.092;2022-09-12T08:35:32;16.80;99.90
7427;DHT22;3755;59.316;18.092;2022-09-12T08:38:18;16.80;99.90
7427;DHT22;3755;59.316;18.092;2022-09-12T08:41:08;16.80;99.90
7427;DHT22;3755;59.316;18.092;2022-09-12T08:44:38;16.80;99.90
7427;DHT22;3755;59.316;18.092;2022-09-12T08:47:26;17.00;99.90
7427;DHT22;3755;59.316;18.092;2022-09-12T08:50:17;17.00;99.90
7427;DHT22;3755;59.316;18.092;2022-09-12T08:53:11;17.10;99.90
7427;DHT22;3755;59.316;18.092;2022-09-12T08:56:00;17.30;99.90
7427;DHT22;3755;59.316;18.092;2022-09-12T08:58:47;17.30;99.90
7427;DHT22;3755;59.316;18.092;2022-09-12T09:01:26;17.40;99.90
7427;DHT22;3755;59.316;18.092;2022-09-12T09:04:18;17.30;99.90
7427;DHT22;3755;59.316;18.092;2022-09-12T09:10:04;17.30;99.90
7427;DHT22;3755;59.316;18.092;2022-09-12T09:16:24;17.10;99.90
7427;DHT22;3755;59.316;18.092;2022-09-12T09:19:03;17.20;99.90
7427;DHT22;3755;59.316;18.092;2022-09-12T09:22:07;17.30;99.90
7427;DHT22;3755;59.316;18.092;2022-09-12T09:24:38;17.40;99.90
7427;DHT22;3755;59.316;18.092;2022-09-12T09:27:11;17.40;99.90
7427;DHT22;3755;59.316;18.092;2022-09-12T09:29:43;17.40;99.90
7427;DHT22;3755;59.316;18.092;2022-09-12T09:32:17;17.60;99.90
7427;DHT22;3755;59.316;18.092;2022-09-12T09:34:46;17.60;99.90
7427;DHT22;3755;59.316;18.092;2022-09-12T09:37:19;17.60;99.90
7427;DHT22;3755;59.316;18.092;2022-09-12T09:39:56;17.50;99.90
7427;DHT22;3755;59.316;18.092;2022-09-12T09:42:36;17.60;99.90
7427;DHT22;3755;59.316;18.092;2022-09-12T09:45:21;17.80;99.90
7427;DHT22;3755;59.316;18.092;2022-09-12T09:48:15;17.90;99.90
7427;DHT22;3755;59.316;18.092;2022-09-12T09:51:01;17.90;99.90
7427;DHT22;3755;59.316;18.092;2022-09-12T09:53:35;17.90;99.90
7427;DHT22;3755;59.316;18.092;2022-09-12T09:56:25;17.80;99.90
7427;DHT22;3755;59.316;18.092;2022-09-12T09:58:55;17.90;99.90
7427;DHT22;3755;59.316;18.092;2022-09-12T10:01:22;17.90;99.50
7427;DHT22;3755;59.316;18.092;2022-09-12T10:04:04;18.00;99.30
7427;DHT22;3755;59.316;18.092;2022-09-12T10:06:32;18.10;99.30
7427;DHT22;3755;59.316;18.092;2022-09-12T10:09:20;17.90;99.60
7427;DHT22;3755;59.316;18.092;2022-09-12T10:11:49;17.90;99.30
7427;DHT22;3755;59.316;18.092;2022-09-12T10:14:32;17.90;99.30
7427;DHT22;3755;59.316;18.092;2022-09-12T10:17:03;18.00;99.30
7427;DHT22;3755;59.316;18.092;2022-09-12T10:19:48;18.00;99.50
7427;DHT22;3755;59.316;18.092;2022-09-12T10:22:17;18.10;99.90
7427;DHT22;3755;59.316;18.092;2022-09-12T10:24:52;18.00;99.90
7427;DHT22;3755;59.316;18.092;2022-09-12T10:27:31;18.10;99.40
7427;DHT22;3755;59.316;18.092;2022-09-12T10:30:02;18.20;99.60
7427;DHT22;3755;59.316;18.092;2022-09-12T10:32:35;18.20;99.40
7427;DHT22;3755;59.316;18.092;2022-09-12T10:35:07;18.20;99.60
7427;DHT22;3755;59.316;18.092;2022-09-12T10:37:51;18.20;99.60
7427;DHT22;3755;59.316;18.092;2022-09-12T10:40:24;18.30;99.50
7427;DHT22;3755;59.316;18.092;2022-09-12T10:42:55;18.20;99.30
7427;DHT22;3755;59.316;18.092;2022-09-12T10:45:26;18.20;99.50
7427;DHT22;3755;59.316;18.092;2022-09-12T10:47:55;18.30;99.30
7427;DHT22;3755;59.316;18.092;2022-09-12T10:50:28;18.40;99.20
7427;DHT22;3755;59.316;18.092;2022-09-12T10:53:13;18.50;98.90
7427;DHT22;3755;59.316;18.092;2022-09-12T10:55:58;18.50;98.70
7427;DHT22;3755;59.316;18.092;2022-09-12T10:58:39;18.50;98.70
7427;DHT22;3755;59.316;18.092;2022-09-12T11:01:17;18.60;98.20
7427;DHT22;3755;59.316;18.092;2022-09-12T11:04:07;18.60;98.20
7427;DHT22;3755;59.316;18.092;2022-09-12T11:09:40;18.60;97.50
7427;DHT22;3755;59.316;18.092;2022-09-12T11:12:14;18.70;97.80
7427;DHT22;3755;59.316;18.092;2022-09-12T11:14:57;18.70;98.00
7427;DHT22;3755;59.316;18.092;2022-09-12T11:17:45;18.90;98.00
7427;DHT22;3755;59.316;18.092;2022-09-12T11:20:37;18.80;97.50
7427;DHT22;3755;59.316;18.092;2022-09-12T11:26:25;18.60;97.10
7427;DHT22;3755;59.316;18.092;2022-09-12T11:29:05;18.60;97.30
7427;DHT22;3755;59.316;18.092;2022-09-12T11:32:05;18.60;97.00
7427;DHT22;3755;59.316;18.092;2022-09-12T11:34:44;18.40;97.50
7427;DHT22;3755;59.316;18.092;2022-09-12T11:40:24;18.30;97.90
7427;DHT22;3755;59.316;18.092;2022-09-12T11:43:00;18.40;97.80
7427;DHT22;3755;59.316;18.092;2022-09-12T11:45:36;18.50;97.90
7427;DHT22;3755;59.316;18.092;2022-09-12T11:48:31;18.60;97.30
7427;DHT22;3755;59.316;18.092;2022-09-12T11:51:05;18.60;97.40
7427;DHT22;3755;59.316;18.092;2022-09-12T11:53:36;18.60;97.30
7427;DHT22;3755;59.316;18.092;2022-09-12T11:56:12;18.70;97.10
7427;DHT22;3755;59.316;18.092;2022-09-12T11:58:43;18.70;96.80
7427;DHT22;3755;59.316;18.092;2022-09-12T12:01:14;18.70;96.60
7427;DHT22;3755;59.316;18.092;2022-09-12T12:03:45;18.70;96.50
7427;DHT22;3755;59.316;18.092;2022-09-12T12:06:16;18.80;96.40
7427;DHT22;3755;59.316;18.092;2022-09-12T12:08:46;18.70;96.30
7427;DHT22;3755;59.316;18.092;2022-09-12T12:11:28;18.60;96.20
7427;DHT22;3755;59.316;18.092;2022-09-12T12:14:03;18.70;95.70
7427;DHT22;3755;59.316;18.092;2022-09-12T12:16:37;18.80;95.80
7427;DHT22;3755;59.316;18.092;2022-09-12T12:19:10;19.00;95.80
7427;DHT22;3755;59.316;18.092;2022-09-12T12:21:49;19.00;95.80
7427;DHT22;3755;59.316;18.092;2022-09-12T12:24:20;18.90;95.90
7427;DHT22;3755;59.316;18.092;2022-09-12T12:26:58;19.00;95.90
7427;DHT22;3755;59.316;18.092;2022-09-12T12:29:42;19.20;96.10
7427;DHT22;3755;59.316;18.092;2022-09-12T12:32:25;19.30;97.20
7427;DHT22;3755;59.316;18.092;2022-09-12T12:37:51;19.00;99.00
7427;DHT22;3755;59.316;18.092;2022-09-12T12:40:23;19.00;99.60
7427;DHT22;3755;59.316;18.092;2022-09-12T12:46:05;18.90;99.90
7427;DHT22;3755;59.316;18.092;2022-09-12T12:48:42;18.80;99.90
7427;DHT22;3755;59.316;18.092;2022-09-12T12:51:34;18.90;99.90
7427;DHT22;3755;59.316;18.092;2022-09-12T12:54:04;19.00;99.90
7427;DHT22;3755;59.316;18.092;2022-09-12T12:56:38;19.00;99.90
7427;DHT22;3755;59.316;18.092;2022-09-12T12:59:19;19.00;99.90
7427;DHT22;3755;59.316;18.092;2022-09-12T13:01:51;19.10;99.90
7427;DHT22;3755;59.316;18.092;2022-09-12T13:04:30;19.00;99.90
7427;DHT22;3755;59.316;18.092;2022-09-12T13:07:01;19.00;99.90
7427;DHT22;3755;59.316;18.092;2022-09-12T13:09:32;18.90;99.90
7427;DHT22;3755;59.316;18.092;2022-09-12T13:12:03;18.90;99.70
7427;DHT22;3755;59.316;18.092;2022-09-12T13:14:48;18.80;99.90
7427;DHT22;3755;59.316;18.092;2022-09-12T13:17:22;18.70;99.90
7427;DHT22;3755;59.316;18.092;2022-09-12T13:19:53;18.70;99.90
7427;DHT22;3755;59.316;18.092;2022-09-12T13:22:22;18.70;99.90
7427;DHT22;3755;59.316;18.092;2022-09-12T13:24:51;18.90;99.90
7427;DHT22;3755;59.316;18.092;2022-09-12T13:27:21;19.10;98.80
7427;DHT22;3755;59.316;18.092;2022-09-12T13:30:16;19.30;98.70
7427;DHT22;3755;59.316;18.092;2022-09-12T13:32:43;19.20;98.50
7427;DHT22;3755;59.316;18.092;2022-09-12T13:35:13;19.30;98.30
7427;DHT22;3755;59.316;18.092;2022-09-12T13:37:49;19.40;98.20
7427;DHT22;3755;59.316;18.092;2022-09-12T13:40:29;19.20;98.50
7427;DHT22;3755;59.316;18.092;2022-09-12T13:43:12;19.10;98.80
7427;DHT22;3755;59.316;18.092;2022-09-12T13:45:45;19.10;98.90
7427;DHT22;3755;59.316;18.092;2022-09-12T13:48:27;19.20;99.20
7427;DHT22;3755;59.316;18.092;2022-09-12T13:51:00;19.30;99.40
7427;DHT22;3755;59.316;18.092;2022-09-12T13:53:44;19.40;99.30
7427;DHT22;3755;59.316;18.092;2022-09-12T13:56:20;19.30;99.40
7427;DHT22;3755;59.316;18.092;2022-09-12T13:59:02;19.30;99.70
7427;DHT22;3755;59.316;18.092;2022-09-12T14:01:48;19.30;99.70
7427;DHT22;3755;59.316;18.092;2022-09-12T14:04:23;19.20;99.80
7427;DHT22;3755;59.316;18.092;2022-09-12T14:07:16;19.10;99.90
7427;DHT22;3755;59.316;18.092;2022-09-12T14:09:57;19.10;99.90
7427;DHT22;3755;59.316;18.092;2022-09-12T14:12:37;19.20;99.80
7427;DHT22;3755;59.316;18.092;2022-09-12T14:15:23;19.30;99.80
7427;DHT22;3755;59.316;18.092;2022-09-12T14:18:02;19.30;99.70
7427;DHT22;3755;59.316;18.092;2022-09-12T14:20:44;19.40;99.60
7427;DHT22;3755;59.316;18.092;2022-09-12T14:23:27;19.20;99.60
7427;DHT22;3755;59.316;18.092;2022-09-12T14:25:57;19.10;99.90
7427;DHT22;3755;59.316;18.092;2022-09-12T14:28:38;19.10;99.90
7427;DHT22;3755;59.316;18.092;2022-09-12T14:31:20;19.00;99.90
7427;DHT22;3755;59.316;18.092;2022-09-12T14:33:54;18.80;99.90
7427;DHT22;3755;59.316;18.092;2022-09-12T14:36:41;18.60;99.90
7427;DHT22;3755;59.316;18.092;2022-09-12T14:39:27;18.40;99.90
7427;DHT22;3755;59.316;18.092;2022-09-12T14:42:01;18.40;99.90
7427;DHT22;3755;59.316;18.092;2022-09-12T14:44:33;18.40;99.90
7427;DHT22;3755;59.316;18.092;2022-09-12T14:47:14;18.30;99.90
7427;DHT22;3755;59.316;18.092;2022-09-12T14:49:49;18.30;99.90
7427;DHT22;3755;59.316;18.092;2022-09-12T14:52:25;18.30;99.90
7427;DHT22;3755;59.316;18.092;2022-09-12T14:54:58;18.40;99.90
7427;DHT22;3755;59.316;18.092;2022-09-12T14:57:39;18.50;99.90
7427;DHT22;3755;59.316;18.092;2022-09-12T15:00:23;18.50;99.90
7427;DHT22;3755;59.316;18.092;2022-09-12T15:02:52;18.40;99.90
7427;DHT22;3755;59.316;18.092;2022-09-12T15:05:27;18.40;99.90
7427;DHT22;3755;59.316;18.092;2022-09-12T15:07:56;18.40;99.90
7427;DHT22;3755;59.316;18.092;2022-09-12T15:10:40;18.30;99.90
7427;DHT22;3755;59.316;18.092;2022-09-12T15:13:15;18.30;99.90
7427;DHT22;3755;59.316;18.092;2022-09-12T15:15:47;18.10;99.90
7427;DHT22;3755;59.316;18.092;2022-09-12T15:18:15;18.00;99.90
7427;DHT22;3755;59.316;18.092;2022-09-12T15:20:49;18.00;99.90
7427;DHT22;3755;59.316;18.092;2022-09-12T15:23:23;18.00;99.90
7427;DHT22;3755;59.316;18.092;2022-09-12T15:25:56;18.00;99.90
7427;DHT22;3755;59.316;18.092;2022-09-12T15:28:26;17.90;99.90
7427;DHT22;3755;59.316;18.092;2022-09-12T15:30:56;17.90;99.90
7427;DHT22;3755;59.316;18.092;2022-09-12T15:33:25;17.90;99.90
7427;DHT22;3755;59.316;18.092;2022-09-12T15:36:12;17.90;99.90
7427;DHT22;3755;59.316;18.092;2022-09-12T15:38:41;18.10;99.90
7427;DHT22;3755;59.316;18.092;2022-09-12T15:43:37;18.30;99.90
7427;DHT22;3755;59.316;18.092;2022-09-12T15:46:05;18.40;99.90
7427;DHT22;3755;59.316;18.092;2022-09-12T15:48:32;18.50;99.90
7427;DHT22;3755;59.316;18.092;2022-09-12T15:51:01;18.60;99.90
7427;DHT22;3755;59.316;18.092;2022-09-12T15:53:29;18.70;99.90
7427;DHT22;3755;59.316;18.092;2022-09-12T15:55:57;18.70;99.90
7427;DHT22;3755;59.316;18.092;2022-09-12T15:58:27;18.60;99.90
7427;DHT22;3755;59.316;18.092;2022-09-12T16:00:59;18.50;99.90
7427;DHT22;3755;59.316;18.092;2022-09-12T16:03:55;18.40;99.90
7427;DHT22;3755;59.316;18.092;2022-09-12T16:06:24;18.30;99.90
7427;DHT22;3755;59.316;18.092;2022-09-12T16:08:57;18.20;99.90
7427;DHT22;3755;59.316;18.092;2022-09-12T16:11:26;18.10;99.90
7427;DHT22;3755;59.316;18.092;2022-09-12T16:13:58;17.90;99.90
7427;DHT22;3755;59.316;18.092;2022-09-12T16:16:54;17.80;99.90
7427;DHT22;3755;59.316;18.092;2022-09-12T16:19:23;17.60;99.90
7427;DHT22;3755;59.316;18.092;2022-09-12T16:21:53;17.50;99.90
7427;DHT22;3755;59.316;18.092;2022-09-12T16:24:22;17.40;99.90
7427;DHT22;3755;59.316;18.092;2022-09-12T16:26:51;17.30;99.90
7427;DHT22;3755;59.316;18.092;2022-09-12T16:29:20;17.20;99.90
7427;DHT22;3755;59.316;18.092;2022-09-12T16:31:51;17.10;99.90
7427;DHT22;3755;59.316;18.092;2022-09-12T16:34:19;17.10;99.90
7427;DHT22;3755;59.316;18.092;2022-09-12T16:36:48;17.00;99.90
7427;DHT22;3755;59.316;18.092;2022-09-12T16:39:19;16.90;99.90
7427;DHT22;3755;59.316;18.092;2022-09-12T16:42:00;16.80;99.90
7427;DHT22;3755;59.316;18.092;2022-09-12T16:44:30;16.70;99.90
7427;DHT22;3755;59.316;18.092;2022-09-12T16:46:58;16.60;99.90
7427;DHT22;3755;59.316;18.092;2022-09-12T16:49:26;16.60;99.90
7427;DHT22;3755;59.316;18.092;2022-09-12T16:51:53;16.50;99.90
7427;DHT22;3755;59.316;18.092;2022-09-12T16:54:24;16.40;99.90
7427;DHT22;3755;59.316;18.092;2022-09-12T16:57:00;16.40;99.90
7427;DHT22;3755;59.316;18.092;2022-09-12T16:59:42;16.30;99.90
7427;DHT22;3755;59.316;18.092;2022-09-12T17:02:14;16.20;99.90
7427;DHT22;3755;59.316;18.092;2022-09-12T17:04:45;16.10;99.90
7427;DHT22;3755;59.316;18.092;2022-09-12T17:07:16;16.00;99.90
7427;DHT22;3755;59.316;18.092;2022-09-12T17:09:58;15.80;99.90
7427;DHT22;3755;59.316;18.092;2022-09-12T17:12:26;15.80;99.90